createdAt,value
2019-02-06T00:02:24.929Z,93.90
2019-02-06T00:04:55.294Z,93.50
2019-02-06T00:07:25.371Z,93.50
2019-02-06T00:09:55.688Z,94.10
2019-02-06T00:12:25.822Z,93.60
2019-02-06T00:14:55.946Z,93.90
2019-02-06T00:17:25.968Z,94.00
2019-02-06T00:19:56.082Z,94.20
2019-02-06T00:22:26.091Z,96.00
2019-02-06T00:24:56.152Z,95.70
2019-02-06T00:27:26.421Z,96.60
2019-02-06T00:29:56.614Z,96.20
2019-02-06T00:32:26.768Z,94.30
2019-02-06T00:34:56.821Z,95.20
2019-02-06T00:37:26.815Z,96.30
2019-02-06T00:39:56.957Z,96.80
2019-02-06T00:42:27.124Z,96.50
2019-02-06T00:44:57.181Z,96.60
2019-02-06T00:47:27.167Z,95.80
2019-02-06T00:49:57.004Z,95.80
2019-02-06T00:52:26.810Z,94.70
2019-02-06T00:54:56.946Z,95.10
2019-02-06T00:57:27.015Z,95.40
2019-02-06T00:59:58.581Z,95.50
2019-02-06T01:02:28.600Z,96.80
2019-02-06T01:04:58.563Z,97.20
2019-02-06T01:07:28.636Z,97.60
2019-02-06T01:09:58.797Z,98.30
2019-02-06T01:12:28.782Z,96.10
2019-02-06T01:14:58.820Z,97.60
2019-02-06T01:17:28.902Z,96.50
2019-02-06T01:19:59.067Z,97.20
2019-02-06T01:22:29.150Z,97.40
2019-02-06T01:24:59.200Z,95.60
2019-02-06T01:27:29.293Z,96.30
2019-02-06T01:29:59.241Z,96.90
2019-02-06T01:32:29.416Z,96.20
2019-02-06T01:34:59.580Z,97.50
2019-02-06T01:37:29.553Z,98.70
2019-02-06T01:39:59.518Z,95.70
2019-02-06T01:42:29.472Z,97.20
2019-02-06T01:44:59.425Z,97.60
2019-02-06T01:47:29.412Z,98.00
2019-02-06T01:49:59.368Z,97.90
2019-02-06T01:52:29.540Z,96.60
2019-02-06T01:54:59.572Z,98.20
2019-02-06T01:57:29.728Z,96.60
2019-02-06T01:59:59.886Z,97.20
2019-02-06T03:49:10.449Z,93.80
2019-02-06T03:51:40.476Z,94.80
2019-02-06T03:54:11.278Z,95.70
2019-02-06T03:56:41.085Z,95.80
2019-02-06T03:59:12.963Z,94.90
2019-02-06T04:01:42.674Z,95.50
2019-02-06T04:04:12.262Z,95.50
2019-02-06T04:06:53.636Z,96.50
2019-02-06T04:09:14.159Z,96.30
2019-02-06T04:11:44.934Z,96.10
2019-02-06T04:14:14.712Z,97.30
2019-02-06T04:16:44.586Z,94.40
2019-02-06T04:19:16.069Z,95.20
2019-02-06T04:21:46.027Z,94.90
2019-02-06T04:24:16.147Z,98.70
2019-02-06T04:26:47.901Z,94.60
2019-02-06T04:29:18.163Z,94.00
2019-02-06T04:31:48.097Z,95.30
2019-02-06T04:34:19.630Z,95.40
2019-02-06T04:36:50.687Z,95.70
2019-02-06T04:39:20.665Z,93.40
2019-02-06T04:41:50.767Z,94.90
2019-02-06T04:44:20.730Z,93.50
2019-02-06T04:46:50.499Z,94.90
2019-02-06T04:49:23.078Z,95.80
2019-02-06T04:51:53.322Z,95.10
2019-02-06T04:54:25.181Z,95.60
2019-02-06T04:56:55.119Z,94.60
2019-02-06T04:59:24.967Z,93.30
2019-02-06T05:01:54.670Z,94.10
2019-02-06T05:04:24.432Z,97.50
2019-02-06T05:06:54.709Z,95.80
2019-02-06T05:09:25.574Z,94.10
2019-02-06T05:11:55.813Z,93.80
2019-02-06T05:14:25.852Z,96.60
2019-02-06T05:16:55.500Z,94.60
2019-02-06T05:19:27.743Z,95.00
2019-02-06T05:21:57.715Z,94.20
2019-02-06T05:24:29.769Z,92.90
2019-02-06T05:26:59.613Z,94.40
2019-02-06T05:29:29.376Z,94.70
2019-02-06T05:31:59.128Z,95.40
2019-02-06T05:34:28.760Z,94.10
2019-02-06T05:37:01.777Z,94.80
2019-02-06T05:39:31.360Z,92.40
2019-02-06T05:42:01.128Z,94.60
2019-02-06T05:44:30.979Z,94.20
2019-02-06T05:47:01.829Z,96.50
2019-02-06T05:49:32.229Z,95.80
2019-02-06T05:52:03.988Z,94.70
2019-02-06T05:54:34.763Z,92.10
2019-02-06T05:57:05.963Z,96.10
2019-02-06T05:59:35.739Z,93.70
2019-02-06T06:02:06.034Z,96.30
2019-02-06T06:04:35.791Z,94.60
2019-02-06T06:07:06.135Z,93.50
2019-02-06T06:09:36.679Z,93.70
2019-02-06T06:12:08.077Z,95.60
2019-02-06T06:14:37.895Z,94.70
2019-02-06T06:17:08.882Z,94.60
2019-02-06T06:19:38.797Z,92.20
2019-02-06T06:22:08.447Z,94.10
2019-02-06T06:24:38.238Z,92.50
2019-02-06T06:27:07.964Z,91.30
2019-02-06T06:29:37.627Z,93.00
2019-02-06T06:32:07.387Z,92.90
2019-02-06T06:34:37.195Z,96.40
2019-02-06T06:37:07.286Z,93.60
2019-02-06T06:39:37.067Z,92.30
2019-02-06T06:42:07.763Z,91.80
2019-02-06T06:44:37.491Z,93.20
2019-02-06T06:47:07.147Z,92.10
2019-02-06T06:49:38.003Z,93.60
2019-02-06T06:52:07.621Z,91.80
2019-02-06T06:54:37.235Z,93.00
2019-02-06T06:57:06.955Z,91.80
2019-02-06T06:59:37.611Z,93.60
2019-02-06T07:02:10.147Z,96.00
2019-02-06T07:04:59.100Z,95.90
2019-02-06T07:07:29.295Z,92.40
2019-02-06T07:09:59.755Z,94.70
2019-02-06T07:12:29.787Z,91.80
2019-02-06T07:14:59.778Z,93.50
2019-02-06T07:17:31.847Z,94.00
2019-02-06T07:20:01.983Z,91.80
2019-02-06T07:22:31.558Z,90.60
2019-02-06T07:25:01.343Z,91.30
2019-02-06T07:27:31.583Z,90.90
2019-02-06T07:30:01.516Z,92.30
2019-02-06T07:32:31.667Z,93.20
2019-02-06T07:35:03.256Z,92.40
2019-02-06T07:37:32.893Z,92.00
2019-02-06T07:40:03.603Z,91.70
2019-02-06T07:42:34.632Z,91.20
2019-02-06T07:45:06.299Z,92.40
2019-02-06T07:47:36.049Z,90.70
2019-02-06T07:50:07.628Z,93.60
2019-02-06T07:52:37.191Z,89.80
2019-02-06T07:55:07.328Z,90.90
2019-02-06T07:57:38.487Z,91.50
2019-02-06T08:00:10.009Z,89.60
2019-02-06T08:02:42.206Z,90.50
2019-02-06T08:05:13.767Z,90.20
2019-02-06T08:07:43.964Z,93.90
2019-02-06T08:10:26.697Z,90.40
2019-02-06T08:12:56.259Z,91.00
2019-02-06T08:15:26.235Z,92.80
2019-02-06T08:17:55.991Z,94.60
2019-02-06T08:20:25.950Z,91.40
2019-02-06T08:22:56.169Z,90.70
2019-02-06T08:25:29.052Z,89.60
2019-02-06T08:27:59.027Z,90.10
2019-02-06T08:30:30.899Z,89.80
2019-02-06T08:33:00.687Z,90.10
2019-02-06T08:35:32.188Z,90.20
2019-02-06T08:38:03.112Z,94.20
2019-02-06T08:40:33.442Z,87.80
2019-02-06T08:43:06.180Z,90.00
2019-02-06T08:45:36.163Z,90.00
2019-02-06T08:48:05.928Z,90.10
2019-02-06T08:50:36.149Z,89.20
2019-02-06T08:53:06.395Z,90.60
2019-02-06T08:55:37.404Z,89.60
2019-02-06T08:58:07.184Z,88.90
2019-02-06T09:00:39.686Z,89.70
2019-02-06T09:03:10.689Z,88.20
2019-02-06T09:05:41.160Z,90.00
2019-02-06T09:08:10.812Z,88.80
2019-02-06T09:10:42.079Z,88.80
2019-02-06T09:13:14.951Z,87.20
2019-02-06T09:15:44.748Z,87.60
2019-02-06T09:18:14.700Z,89.10
2019-02-06T09:20:46.727Z,87.70
2019-02-06T09:23:18.317Z,87.80
2019-02-06T09:25:48.001Z,87.10
2019-02-06T09:28:19.923Z,87.80
2019-02-06T09:30:52.583Z,87.90
2019-02-06T09:33:22.246Z,86.30
2019-02-06T09:35:52.186Z,85.00
2019-02-06T09:38:23.545Z,84.60
2019-02-06T09:40:53.182Z,88.40
2019-02-06T09:43:24.107Z,85.80
2019-02-06T09:45:53.763Z,85.20
2019-02-06T09:48:23.617Z,83.00
2019-02-06T09:50:53.224Z,86.70
2019-02-06T09:53:24.459Z,85.00
2019-02-06T09:55:56.222Z,85.20
2019-02-06T09:58:29.215Z,81.80
2019-02-06T10:01:00.727Z,84.20
2019-02-06T10:03:31.804Z,81.30
2019-02-06T10:06:03.361Z,81.50
2019-02-06T10:08:32.992Z,84.50
2019-02-06T10:11:02.632Z,88.10
2019-02-06T10:13:34.120Z,82.90
2019-02-06T10:16:03.955Z,80.60
2019-02-06T10:18:35.438Z,85.70
2019-02-06T10:21:07.119Z,80.60
2019-02-06T10:23:38.710Z,82.80
2019-02-06T10:26:08.908Z,85.30
2019-02-06T10:28:38.897Z,81.60
2019-02-06T10:31:09.926Z,82.10
2019-02-06T10:33:40.125Z,81.90
2019-02-06T10:36:09.728Z,81.00
2019-02-06T10:38:39.463Z,82.30
2019-02-06T10:41:09.119Z,82.20
2019-02-06T10:43:40.685Z,81.90
2019-02-06T10:46:12.031Z,80.90
2019-02-06T10:48:43.818Z,81.60
2019-02-06T10:51:12.987Z,82.70
2019-02-06T10:53:44.182Z,82.20
2019-02-06T10:56:14.092Z,79.60
2019-02-06T10:58:43.808Z,80.90
2019-02-06T11:01:14.220Z,80.50
2019-02-06T11:03:45.329Z,81.40
2019-02-06T11:06:16.403Z,79.80
2019-02-06T11:08:46.116Z,82.30
2019-02-06T11:11:18.207Z,84.10
2019-02-06T11:13:49.690Z,83.40
2019-02-06T11:16:20.371Z,81.60
2019-02-06T11:18:50.005Z,79.90
2019-02-06T11:21:22.888Z,82.40
2019-02-06T11:23:53.939Z,82.20
2019-02-06T11:26:23.604Z,79.10
2019-02-06T11:28:53.464Z,82.10
2019-02-06T11:31:24.156Z,80.20
2019-02-06T11:33:53.960Z,79.70
2019-02-06T11:36:24.904Z,81.50
2019-02-06T11:38:56.674Z,78.70
2019-02-06T11:41:26.291Z,78.60
2019-02-06T11:43:56.032Z,78.50
2019-02-06T11:46:25.674Z,79.40
2019-02-06T11:53:55.798Z,78.00
2019-02-06T11:56:25.379Z,78.10
2019-02-06T11:58:57.855Z,82.50
2019-02-06T12:01:32.651Z,77.20
2019-02-06T12:04:03.273Z,78.90
2019-02-06T12:06:34.071Z,81.70
2019-02-06T12:09:06.031Z,78.10
2019-02-06T12:11:35.695Z,78.30
2019-02-06T12:14:06.560Z,77.60
2019-02-06T12:16:38.192Z,83.00
2019-02-06T12:19:09.545Z,79.70
2019-02-06T12:21:39.190Z,77.00
2019-02-06T12:24:09.967Z,77.50
2019-02-06T12:26:41.539Z,81.60
2019-02-06T12:29:11.359Z,77.40
2019-02-06T12:31:40.987Z,76.60
2019-02-06T12:34:10.669Z,81.90
2019-02-06T12:36:40.689Z,77.50
2019-02-06T12:39:12.863Z,77.20
2019-02-06T12:41:44.254Z,79.10
2019-02-06T12:44:14.140Z,80.60
2019-02-06T12:46:45.203Z,82.70
2019-02-06T12:49:15.221Z,78.50
2019-02-06T12:51:44.939Z,81.20
2019-02-06T12:54:14.903Z,74.30
2019-02-06T12:56:49.682Z,77.70
2019-02-06T12:59:21.026Z,76.00
2019-02-06T13:01:50.752Z,78.00
2019-02-06T13:04:20.300Z,77.70
2019-02-06T13:06:50.512Z,75.60
2019-02-06T13:09:20.358Z,77.00
2019-02-06T13:11:51.187Z,75.50
2019-02-06T13:14:21.790Z,77.60
2019-02-06T13:16:52.520Z,75.70
2019-02-06T13:19:23.243Z,75.90
2019-02-06T13:21:54.151Z,74.30
2019-02-06T13:24:23.753Z,77.10
2019-02-06T13:26:53.503Z,78.90
2019-02-06T13:29:25.398Z,75.00
2019-02-06T13:31:57.103Z,75.10
2019-02-06T13:34:27.438Z,75.10
2019-02-06T13:36:59.893Z,79.30
2019-02-06T13:39:30.759Z,75.70
2019-02-06T13:42:05.344Z,75.80
2019-02-06T13:44:34.687Z,75.10
2019-02-06T13:47:06.051Z,78.40
2019-02-06T13:49:35.781Z,74.70
2019-02-06T13:52:05.656Z,76.00
2019-02-06T13:54:36.434Z,73.40
2019-02-06T13:57:06.179Z,78.00
2019-02-06T13:59:35.758Z,73.80
2019-02-06T14:02:05.696Z,74.10
2019-02-06T14:04:36.398Z,73.20
2019-02-06T14:07:06.947Z,77.90
2019-02-06T14:09:38.090Z,74.50
2019-02-06T14:12:08.338Z,73.10
2019-02-06T14:14:38.266Z,72.50
2019-02-06T14:17:10.448Z,71.30
2019-02-06T14:19:40.186Z,74.50
2019-02-06T14:22:13.906Z,70.40
2019-02-06T14:24:56.931Z,78.10
2019-02-06T14:28:10.938Z,72.40
2019-02-06T14:31:20.396Z,75.20
2019-02-06T14:34:12.799Z,76.00
2019-02-06T14:37:12.966Z,71.80
2019-02-06T14:40:11.063Z,74.90
2019-02-06T14:43:07.919Z,72.60
2019-02-06T14:45:52.142Z,74.70
2019-02-06T14:48:56.631Z,73.30
2019-02-06T14:52:14.734Z,77.30
2019-02-06T14:55:24.654Z,77.60
2019-02-06T14:58:23.123Z,84.20
2019-02-06T15:01:33.747Z,76.20
2019-02-06T15:04:45.888Z,74.20
2019-02-06T15:07:44.984Z,74.20
2019-02-06T15:11:01.510Z,71.20
2019-02-06T15:14:10.167Z,74.00
2019-02-06T15:17:23.850Z,73.60
2019-02-06T15:20:17.624Z,72.80
2019-02-06T15:23:19.179Z,72.00
2019-02-06T15:26:35.863Z,74.20
2019-02-06T15:29:52.131Z,74.70
2019-02-06T15:33:14.395Z,72.50
2019-02-06T15:36:15.674Z,73.60
2019-02-06T15:39:17.866Z,73.30
2019-02-06T15:42:10.700Z,74.90
2019-02-06T15:45:21.616Z,73.90
2019-02-06T15:48:02.521Z,79.20
2019-02-06T15:51:09.152Z,74.30
2019-02-06T15:53:56.885Z,74.50
2019-02-06T15:57:19.275Z,73.30
2019-02-06T16:00:57.415Z,71.20
2019-02-06T16:04:28.875Z,76.40
2019-02-06T16:07:40.960Z,71.70
2019-02-06T16:10:55.783Z,78.30
2019-02-06T16:13:44.800Z,73.60
2019-02-06T16:17:22.903Z,80.30
2019-02-06T16:20:27.951Z,71.40
2019-02-06T16:23:30.395Z,74.10
2019-02-06T16:26:47.200Z,73.90
2019-02-06T16:29:44.982Z,75.10
2019-02-06T16:32:58.834Z,75.60
2019-02-06T16:36:05.180Z,75.50
2019-02-06T16:39:30.307Z,74.30
2019-02-06T16:42:50.015Z,76.30
2019-02-06T16:45:52.886Z,75.10
2019-02-06T16:48:37.180Z,75.40
2019-02-06T16:51:34.047Z,73.60
2019-02-06T16:54:46.432Z,80.60
2019-02-06T16:58:08.603Z,75.60
2019-02-06T17:01:05.343Z,77.50
2019-02-06T17:04:12.060Z,74.60
2019-02-06T17:06:59.142Z,81.60
2019-02-06T17:10:06.081Z,77.30
2019-02-06T17:13:19.870Z,79.30
2019-02-06T17:16:13.275Z,79.50
2019-02-06T17:19:16.779Z,82.30
2019-02-06T17:22:32.461Z,80.40
2019-02-06T17:25:46.008Z,79.40
2019-02-06T17:28:43.835Z,82.60
2019-02-06T17:31:52.091Z,81.40
2019-02-06T17:35:09.703Z,83.10
2019-02-06T17:38:26.879Z,82.30
2019-02-06T17:41:46.299Z,84.00
2019-02-06T17:44:55.613Z,84.80
2019-02-06T17:48:15.591Z,85.60
2019-02-06T17:51:41.141Z,87.50
2019-02-06T17:54:53.180Z,87.40
2019-02-06T17:57:22.843Z,87.00
2019-02-06T17:59:52.567Z,87.20
2019-02-06T18:02:24.012Z,88.80
2019-02-06T18:04:53.947Z,87.80
2019-02-06T18:07:24.626Z,87.90
2019-02-06T18:09:57.135Z,88.10
2019-02-06T18:12:28.794Z,89.00
2019-02-06T18:15:01.435Z,88.20
2019-02-06T18:17:31.066Z,89.70
2019-02-06T18:20:02.688Z,89.90
2019-02-06T18:22:32.411Z,90.20
2019-02-06T18:25:03.783Z,89.80
2019-02-06T18:27:33.607Z,90.60
2019-02-06T18:30:05.183Z,90.40
2019-02-06T18:32:34.788Z,90.60
2019-02-06T18:35:05.434Z,91.30
2019-02-06T18:37:43.472Z,91.80
2019-02-06T18:40:10.198Z,91.40
2019-02-06T18:42:40.231Z,91.10
2019-02-06T18:45:14.627Z,91.10
2019-02-06T18:47:45.903Z,91.40
2019-02-06T18:50:19.311Z,92.70
2019-02-06T18:52:48.867Z,90.30
2019-02-06T18:55:21.284Z,90.30
2019-02-06T18:57:51.312Z,90.00
2019-02-06T19:00:28.639Z,90.30
2019-02-06T19:02:58.727Z,90.40
2019-02-06T19:05:32.024Z,91.00
2019-02-06T19:08:02.574Z,88.40
2019-02-06T19:10:33.581Z,89.40
2019-02-06T19:13:03.410Z,90.10
2019-02-06T19:15:33.980Z,91.40
2019-02-06T19:18:05.086Z,87.90
2019-02-06T19:20:37.124Z,89.70
2019-02-06T19:23:09.316Z,88.80
2019-02-06T19:25:39.046Z,88.70
2019-02-06T19:28:10.072Z,92.40
2019-02-06T19:30:41.128Z,89.90
2019-02-06T19:33:11.072Z,89.70
2019-02-06T19:35:41.322Z,90.80
2019-02-06T19:38:11.251Z,89.90
2019-02-06T19:40:43.408Z,91.50
2019-02-06T19:43:13.117Z,90.30
2019-02-06T19:45:44.772Z,90.30
2019-02-06T19:48:16.387Z,92.20
2019-02-06T19:50:46.056Z,91.50
2019-02-06T19:53:15.874Z,90.70
2019-02-06T19:55:47.002Z,90.90
2019-02-06T19:58:19.216Z,91.40
2019-02-06T20:00:49.600Z,91.60
2019-02-06T20:03:20.084Z,91.70
2019-02-06T20:05:49.812Z,92.70
2019-02-06T20:08:20.778Z,92.00
2019-02-06T20:10:50.934Z,92.10
2019-02-06T20:13:23.108Z,91.50
2019-02-06T20:15:54.259Z,91.80
2019-02-06T20:18:24.123Z,94.20
2019-02-06T20:20:53.770Z,92.10
2019-02-06T20:23:23.430Z,92.70
2019-02-06T20:25:54.519Z,92.70
2019-02-06T20:28:24.172Z,94.10
2019-02-06T20:30:55.241Z,93.60
2019-02-06T20:33:26.106Z,92.90
2019-02-06T20:35:56.131Z,93.40
2019-02-06T20:38:25.841Z,94.10
2019-02-06T20:40:55.545Z,94.30
2019-02-06T20:43:26.355Z,94.40
2019-02-06T20:45:56.730Z,95.00
2019-02-06T20:48:26.466Z,93.90
2019-02-06T20:50:56.728Z,94.10
2019-02-06T20:53:28.150Z,94.70
2019-02-06T20:55:57.893Z,94.10
2019-02-06T20:58:27.604Z,94.30
2019-02-06T21:00:57.715Z,93.60
2019-02-06T21:03:28.103Z,93.60
2019-02-06T21:05:57.865Z,94.70
2019-02-06T21:08:27.460Z,94.40
2019-02-06T21:10:59.559Z,94.30
2019-02-06T21:13:33.269Z,95.40
2019-02-06T21:16:01.489Z,95.30
2019-02-06T21:18:34.139Z,95.30
2019-02-06T21:21:05.359Z,96.40
2019-02-06T21:23:35.224Z,96.70
2019-02-06T21:26:06.266Z,97.60
2019-02-06T21:28:36.359Z,96.60
2019-02-06T21:31:07.894Z,97.10
2019-02-06T21:33:37.732Z,97.30
2019-02-06T21:36:08.903Z,96.50
2019-02-06T21:38:38.891Z,97.80
2019-02-06T21:41:08.523Z,98.50
2019-02-06T21:43:44.233Z,97.90
2019-02-06T21:46:11.491Z,97.20
2019-02-06T21:48:41.090Z,98.20
2019-02-06T21:51:10.748Z,97.40
2019-02-06T21:53:41.527Z,96.90
2019-02-06T21:56:13.468Z,97.90
2019-02-06T21:58:43.829Z,97.40
2019-02-06T22:01:13.743Z,97.90
2019-02-06T22:03:43.628Z,97.10
2019-02-06T22:06:13.483Z,97.30
2019-02-06T22:08:44.136Z,97.50
2019-02-06T22:11:13.866Z,97.70
2019-02-06T22:13:43.423Z,97.00
2019-02-06T22:16:13.087Z,97.60
2019-02-06T22:18:42.767Z,97.00
2019-02-06T22:21:12.518Z,97.60
2019-02-06T22:23:42.204Z,97.40
2019-02-06T22:26:13.307Z,97.50
2019-02-06T22:28:43.746Z,96.80
2019-02-06T22:31:13.493Z,97.10
2019-02-06T22:33:44.707Z,97.80
2019-02-06T22:36:16.121Z,98.30
2019-02-06T22:38:45.894Z,97.70
2019-02-06T22:41:16.517Z,97.80
2019-02-06T22:43:46.241Z,98.30
2019-02-06T22:46:17.223Z,97.80
2019-02-06T22:48:49.567Z,97.00
2019-02-06T22:51:19.159Z,97.30
2019-02-06T22:53:50.538Z,98.40
2019-02-06T22:56:22.148Z,98.80
2019-02-06T22:58:51.699Z,99.10
2019-02-06T23:02:01.094Z,99.40
2019-02-06T23:04:30.667Z,98.70
2019-02-06T23:07:02.280Z,98.80
2019-02-06T23:09:33.527Z,98.90
2019-02-06T23:12:04.279Z,99.60
2019-02-06T23:14:34.015Z,99.50
2019-02-06T23:17:04.715Z,99.50
2019-02-06T23:19:35.462Z,98.70
2019-02-06T23:22:06.775Z,98.90
2019-02-06T23:24:37.473Z,99.90
2019-02-06T23:27:07.496Z,99.90
2019-02-06T23:29:39.003Z,99.50
2019-02-06T23:32:10.140Z,99.80
2019-02-06T23:34:40.952Z,99.30
2019-02-06T23:37:11.713Z,99.50
2019-02-06T23:39:41.583Z,98.40
2019-02-06T23:42:11.178Z,98.60
2019-02-06T23:44:44.052Z,99.90
2019-02-06T23:47:14.023Z,99.50
2019-02-06T23:49:43.659Z,99.90
2019-02-06T23:52:13.596Z,99.40
2019-02-06T23:54:44.349Z,99.40
2019-02-06T23:57:13.984Z,99.90
2019-02-06T23:59:44.019Z,99.20
